Game Details

[ Leader Board ] [ Players ] [ Opponents ] [ Guilds ] [ Areas ]

Game Details for: Grymm

Game Progress

Quest Completed on Day
Arena 3 130
Data Cubes 119
Arena 2 113
Mountain Pass 88
Chaak Mine 86
Dave and Heidi 41
Arena 1 38
Mushroom Stew 5

Full Telemetry

Time Game Day Game Hour Game Minute Type Details Value Extra Zone X Y Credits Guild
5/31/2018 5:22:40 PM 178 0 6 Save 0 2 OldLab1 4 4 11996 Centurion
5/31/2018 5:22:22 PM 178 0 0 Daily Grymm 6463 OldLab1 23 3 11996 Centurion
5/31/2018 5:20:33 PM 177 23 19 Combat Lv 3 Chaak Reaper 0 Win OldLab1 26 20 11996 Centurion
5/31/2018 5:18:25 PM 177 22 48 Combat Lv 2 Chaak Runner 0 Win OldLab1 7 12 11899 Centurion
5/31/2018 5:17:43 PM 177 22 43 Combat Lv 4 Chaak Reaper 0 Win OldLab1 12 5 11753 Centurion
5/31/2018 5:14:25 PM 177 14 33 Combat Lv 4 Cobra 0 Win Wilderness4 25 31 11618 Centurion
5/29/2018 7:44:34 PM 177 16 37 Combat Lv 3 Chaak Reaper 0 Win OldLab1 26 22 12883 Centurion
5/29/2018 7:11:59 PM 177 13 8 Combat Lv 5 Bear 0 Win Wilderness4 8 36 12776 Centurion
5/29/2018 7:07:07 PM 177 8 12 Daily Grymm 6450 Village6 7 24 11608 Centurion
5/29/2018 7:06:54 PM 176 1 9 Daily Grymm 6463 Village6 7 24 11546 Centurion
5/29/2018 7:06:06 PM 175 8 6 Equip Psionic Rapier 799 OldLab2 25 24 11594 Centurion
5/29/2018 7:05:57 PM 175 8 6 Combat Lv 2 Chaak Runner 0 Win OldLab2 25 24 11594 Centurion
5/29/2018 7:03:52 PM 175 7 57 Combat Lv 2 Chaak Blazer 0 Win OldLab2 17 28 11594 Centurion
5/29/2018 7:03:27 PM 175 7 54 Combat Lv 4 Chaak Reaper 0 Win OldLab2 29 29 11470 Centurion
5/29/2018 6:46:46 PM 175 7 43 Combat Lv 2 Chaak Runner 0 Win OldLab1 9 24 11331 Centurion
5/29/2018 6:46:02 PM 175 7 42 Combat Lv 4 Chaak Reaper 0 Win OldLab1 8 20 11193 Centurion
5/29/2018 5:59:00 PM 175 7 21 Combat Lv 3 Chaak Runner 0 Win OldLab2 21 28 11082 Centurion
5/28/2018 7:18:23 PM 175 7 20 Save 0 0 OldLab2 18 29 10915 Centurion
5/28/2018 7:18:12 PM 175 7 18 Save 3 1 OldLab2 26 29 10915 Centurion
5/28/2018 7:18:00 PM 175 7 17 Combat Lv 4 Chaak Reaper 0 Win OldLab1 26 27 10915 Centurion
5/28/2018 7:15:25 PM 175 7 17 Combat Lv 4 Chaak Reaper 0 Win OldLab1 26 26 10800 Centurion
5/28/2018 7:09:45 PM 175 7 16 Save 0 2 OldLab1 28 20 10671 Centurion
5/28/2018 7:09:03 PM 175 0 0 Daily Grymm 6344 Wilderness4 20 7 10701 Centurion
5/28/2018 7:06:50 PM 174 1 36 Daily Grymm 6331 Village4 5 14 10706 Centurion
5/28/2018 7:06:31 PM 173 12 27 Train Defense 14 Village4 27 15 10728 Centurion
5/28/2018 7:06:27 PM 173 3 27 Train Accuracy 13 Village4 27 15 11576 Centurion
5/28/2018 7:06:27 PM 173 3 27 Daily Grymm 6311 Village4 27 15 11576 Centurion
5/28/2018 7:05:14 PM 172 9 58 Equip Alien Heavy Kinetic Field 633 Village6 22 23 12345 Centurion
5/28/2018 7:05:12 PM 172 9 58 Equip Fine Inert D Field 592 Village6 22 23 12345 Centurion
5/28/2018 7:05:09 PM 172 9 58 Equip Alien Shiny Steel Cap 858 Village6 22 23 12345 Centurion